createdAt,value
2022-10-01T00:02:14.821Z,6.38
2022-10-01T00:04:45.098Z,6.38
2022-10-01T00:07:15.640Z,6.39
2022-10-01T00:09:47.822Z,6.41
2022-10-01T00:12:16.673Z,6.20
2022-10-01T00:14:45.079Z,6.37
2022-10-01T00:17:13.342Z,6.43
2022-10-01T00:19:41.620Z,6.42
2022-10-01T00:22:12.625Z,6.45
2022-10-01T00:24:48.085Z,6.54
2022-10-01T00:27:16.037Z,6.61
2022-10-01T00:29:45.303Z,6.59
2022-10-01T00:32:13.322Z,6.59
2022-10-01T00:34:43.615Z,6.59
2022-10-01T00:37:14.335Z,6.59
2022-10-01T00:39:42.388Z,6.55
2022-10-01T00:42:22.179Z,6.61
2022-10-01T00:44:53.306Z,6.56
2022-10-01T00:47:30.243Z,6.56
2022-10-01T00:50:05.970Z,6.54
2022-10-01T00:52:36.890Z,6.55
2022-10-01T00:55:11.970Z,6.53
2022-10-01T00:57:43.401Z,6.53
2022-10-01T01:00:14.898Z,6.47
2022-10-01T01:02:43.842Z,6.56
2022-10-01T01:05:13.684Z,6.63
2022-10-01T01:07:46.151Z,6.66
2022-10-01T01:10:29.826Z,6.69
2022-10-01T01:13:12.664Z,6.70
2022-10-01T01:15:57.481Z,6.77
2022-10-01T01:18:31.944Z,6.78
2022-10-01T01:21:25.694Z,6.81
2022-10-01T01:24:30.941Z,6.93
2022-10-01T01:27:13.651Z,7.00
2022-10-01T01:29:52.299Z,7.06
2022-10-01T01:32:26.365Z,7.09
2022-10-01T01:34:57.960Z,7.04
2022-10-01T01:37:31.942Z,7.12
2022-10-01T01:40:06.978Z,7.17
2022-10-01T01:42:38.027Z,7.23
2022-10-01T01:45:11.478Z,7.28
2022-10-01T01:47:42.052Z,7.32
2022-10-01T01:50:12.817Z,7.33
2022-10-01T01:52:41.212Z,7.38
2022-10-01T01:55:12.593Z,7.41
2022-10-01T01:57:44.302Z,7.42
2022-10-01T02:00:16.170Z,7.42
2022-10-01T02:02:50.724Z,7.44
2022-10-01T02:05:22.516Z,7.51
2022-10-01T02:08:12.802Z,7.57
2022-10-01T02:10:56.116Z,7.63
2022-10-01T02:13:39.754Z,7.62
2022-10-01T02:16:18.981Z,7.59
2022-10-01T02:18:54.584Z,7.63
2022-10-01T02:21:32.573Z,7.62
2022-10-01T02:24:09.495Z,7.64
2022-10-01T02:26:40.595Z,7.66
2022-10-01T02:29:13.160Z,7.68
2022-10-01T02:31:42.725Z,7.71
2022-10-01T02:34:12.859Z,7.75
2022-10-01T02:36:42.627Z,7.77
2022-10-01T02:39:12.952Z,7.80
2022-10-01T02:41:44.644Z,7.83
2022-10-01T02:44:17.054Z,7.86
2022-10-01T02:46:54.320Z,7.86
2022-10-01T02:49:22.454Z,7.96
2022-10-01T02:52:00.717Z,8.01
2022-10-01T02:54:34.173Z,8.06
2022-10-01T02:57:19.431Z,8.08
2022-10-01T02:59:47.582Z,8.11
2022-10-01T03:02:17.830Z,8.15
2022-10-01T03:04:47.929Z,8.19
2022-10-01T03:07:15.931Z,8.20
2022-10-01T03:09:43.987Z,8.25
2022-10-01T03:12:19.295Z,8.27
2022-10-01T03:14:47.593Z,8.32
2022-10-01T03:17:17.651Z,8.37
2022-10-01T03:19:45.851Z,8.40
2022-10-01T03:22:22.621Z,8.40
2022-10-01T03:24:50.887Z,8.43
2022-10-01T03:27:22.985Z,8.44
2022-10-01T03:29:51.703Z,8.47
2022-10-01T03:32:21.408Z,8.47
2022-10-01T03:34:49.571Z,8.46
2022-10-01T03:37:17.574Z,8.49
2022-10-01T03:39:45.933Z,8.51
2022-10-01T03:42:14.641Z,8.52
2022-10-01T03:44:42.654Z,8.51
2022-10-01T03:47:11.285Z,8.55
2022-10-01T03:49:40.659Z,8.63
2022-10-01T03:52:09.158Z,8.63
2022-10-01T03:54:39.929Z,8.65
2022-10-01T03:57:08.363Z,8.65
2022-10-01T03:59:39.215Z,8.61
2022-10-01T04:02:07.849Z,8.55
2022-10-01T04:08:06.592Z,8.28
2022-10-01T04:10:36.774Z,8.24
2022-10-01T04:13:05.667Z,8.19
2022-10-01T04:15:33.918Z,8.12
2022-10-01T04:18:06.219Z,8.08
2022-10-01T04:20:39.154Z,7.93
2022-10-01T04:23:08.632Z,7.88
2022-10-01T04:25:36.784Z,7.82
2022-10-01T04:28:07.001Z,7.78
2022-10-01T04:30:36.438Z,7.79
2022-10-01T04:33:05.426Z,7.77
2022-10-01T04:35:33.784Z,7.72
2022-10-01T04:38:12.417Z,7.74
2022-10-01T04:40:40.593Z,7.67
2022-10-01T04:43:10.721Z,7.73
2022-10-01T04:45:39.227Z,7.72
2022-10-01T04:48:07.561Z,7.71
2022-10-01T04:50:38.047Z,7.68
2022-10-01T04:53:06.476Z,7.72
2022-10-01T04:55:35.788Z,7.72
2022-10-01T04:58:06.467Z,7.74
2022-10-01T05:00:37.476Z,7.73
2022-10-01T05:03:05.705Z,7.73
2022-10-01T05:05:34.994Z,7.72
2022-10-01T05:08:03.562Z,7.69
2022-10-01T05:10:31.576Z,7.55
2022-10-01T05:13:02.554Z,7.71
2022-10-01T05:15:30.849Z,7.72
2022-10-01T05:17:59.082Z,7.72
2022-10-01T05:20:29.098Z,7.72
2022-10-01T05:22:57.428Z,7.69
2022-10-01T05:25:25.370Z,7.73
2022-10-01T05:27:53.662Z,7.51
2022-10-01T05:30:24.366Z,7.71
2022-10-01T05:32:57.101Z,7.53
2022-10-01T05:35:25.150Z,7.74
2022-10-01T05:37:57.542Z,7.72
2022-10-01T05:40:27.376Z,7.76
2022-10-01T05:42:56.413Z,7.78
2022-10-01T05:45:27.783Z,7.77
2022-10-01T05:48:00.622Z,7.78
2022-10-01T05:50:31.426Z,7.79
2022-10-01T05:52:59.731Z,7.79
2022-10-01T05:55:34.850Z,7.81
2022-10-01T05:58:05.331Z,7.82
2022-10-01T06:00:36.358Z,7.81
2022-10-01T06:03:05.579Z,7.84
2022-10-01T06:05:35.828Z,7.84
2022-10-01T06:08:06.086Z,7.87
2022-10-01T06:10:35.220Z,7.88
2022-10-01T06:13:06.160Z,7.86
2022-10-01T06:15:37.598Z,7.86
2022-10-01T06:18:06.796Z,7.91
2022-10-01T06:20:35.459Z,7.91
2022-10-01T06:23:29.691Z,7.93
2022-10-01T06:26:00.320Z,7.90
2022-10-01T06:28:28.558Z,7.93
2022-10-01T06:30:58.186Z,7.93
2022-10-01T06:33:26.390Z,7.94
2022-10-01T06:35:54.501Z,7.94
2022-10-01T06:38:25.414Z,7.90
2022-10-01T06:40:54.490Z,7.94
2022-10-01T06:43:30.005Z,7.95
2022-10-01T06:46:02.572Z,7.95
2022-10-01T06:48:31.621Z,7.91
2022-10-01T06:51:00.344Z,8.03
2022-10-01T06:53:28.742Z,7.98
2022-10-01T06:55:57.356Z,8.04
2022-10-01T06:58:50.818Z,8.05
2022-10-01T07:01:22.589Z,8.01
2022-10-01T07:03:51.225Z,8.11
2022-10-01T07:06:19.358Z,8.13
2022-10-01T07:08:50.346Z,8.13
2022-10-01T07:11:19.072Z,8.13
2022-10-01T07:13:51.098Z,8.18
2022-10-01T07:16:23.101Z,8.15
2022-10-01T07:18:51.346Z,8.19
2022-10-01T07:21:19.272Z,8.20
2022-10-01T07:23:49.217Z,8.23
2022-10-01T07:26:17.326Z,8.30
2022-10-01T07:28:46.644Z,8.26
2022-10-01T07:31:14.713Z,8.28
2022-10-01T07:33:44.097Z,8.29
2022-10-01T07:36:13.437Z,8.21
2022-10-01T07:38:43.430Z,8.29
2022-10-01T07:41:11.851Z,8.10
2022-10-01T07:43:43.756Z,8.38
2022-10-01T07:46:12.300Z,8.35
2022-10-01T07:48:41.194Z,8.33
2022-10-01T07:51:31.140Z,8.38
2022-10-01T07:54:38.000Z,8.35
2022-10-01T07:57:05.844Z,8.43
2022-10-01T07:59:33.932Z,8.42
2022-10-01T08:02:01.890Z,8.42
2022-10-01T08:04:47.691Z,8.41
2022-10-01T08:07:17.235Z,8.49
2022-10-01T08:09:45.380Z,8.44
2022-10-01T08:12:13.306Z,8.45
2022-10-01T08:14:41.477Z,8.45
2022-10-01T08:17:11.857Z,8.52
2022-10-01T08:19:42.342Z,8.48
2022-10-01T08:22:12.750Z,8.48
2022-10-01T08:24:42.113Z,8.53
2022-10-01T08:27:10.093Z,8.52
2022-10-01T08:29:44.248Z,8.56
2022-10-01T08:32:12.701Z,8.57
2022-10-01T08:34:40.806Z,8.65
2022-10-01T08:37:08.686Z,8.63
2022-10-01T08:39:37.836Z,8.66
2022-10-01T08:42:16.464Z,8.71
2022-10-01T08:44:50.208Z,8.76
2022-10-01T08:47:28.539Z,8.81
2022-10-01T08:50:01.742Z,8.81
2022-10-01T08:52:32.868Z,8.86
2022-10-01T08:55:04.698Z,8.86
2022-10-01T08:57:44.449Z,8.86
2022-10-01T09:00:15.838Z,8.90
2022-10-01T09:02:47.834Z,8.96
2022-10-01T09:05:23.659Z,8.93
2022-10-01T09:09:32.881Z,8.85
2022-10-01T09:12:11.820Z,8.85
2022-10-01T09:14:55.916Z,8.94
2022-10-01T09:17:58.297Z,9.00
2022-10-01T09:20:38.325Z,9.08
2022-10-01T09:23:20.979Z,9.15
2022-10-01T09:25:52.104Z,9.15
2022-10-01T09:28:22.757Z,9.22
2022-10-01T09:30:56.943Z,9.34
2022-10-01T09:33:30.144Z,9.38
2022-10-01T09:36:08.904Z,9.47
2022-10-01T09:38:41.050Z,9.56
2022-10-01T09:41:13.303Z,9.61
2022-10-01T09:43:45.005Z,9.79
2022-10-01T09:46:17.610Z,9.98
2022-10-01T09:48:55.711Z,10.18
2022-10-01T09:51:38.079Z,10.42
2022-10-01T09:54:17.515Z,10.66
2022-10-01T09:56:52.063Z,10.40
2022-10-01T09:59:25.497Z,10.73
2022-10-01T10:01:59.285Z,10.61
2022-10-01T10:04:31.533Z,10.90
2022-10-01T10:07:06.761Z,10.88
2022-10-01T10:09:37.075Z,11.08
2022-10-01T10:12:09.942Z,11.00
2022-10-01T10:14:41.406Z,11.04
2022-10-01T10:17:15.810Z,10.94
2022-10-01T10:19:49.338Z,11.14
2022-10-01T10:22:24.706Z,10.84
2022-10-01T10:24:54.045Z,11.00
2022-10-01T10:27:28.577Z,10.94
2022-10-01T10:30:04.757Z,10.92
2022-10-01T10:32:33.284Z,11.02
2022-10-01T10:35:05.832Z,11.10
2022-10-01T10:37:38.582Z,11.38
2022-10-01T10:40:20.036Z,11.46
2022-10-01T10:43:01.893Z,11.66
2022-10-01T10:45:35.514Z,11.71
2022-10-01T10:48:06.218Z,11.79
2022-10-01T10:50:38.938Z,11.88
2022-10-01T10:53:22.151Z,11.50
2022-10-01T10:55:59.404Z,11.41
2022-10-01T10:58:30.425Z,11.48
2022-10-01T11:01:03.450Z,11.59
2022-10-01T11:03:34.473Z,11.83
2022-10-01T11:06:09.967Z,11.81
2022-10-01T11:08:40.917Z,11.85
2022-10-01T11:11:25.109Z,11.91
2022-10-01T11:14:10.495Z,11.89
2022-10-01T11:16:52.668Z,11.94
2022-10-01T11:19:34.099Z,11.99
2022-10-01T11:22:13.553Z,12.02
2022-10-01T11:25:02.068Z,12.00
2022-10-01T11:27:39.399Z,11.96
2022-10-01T11:30:16.607Z,12.00
2022-10-01T11:32:51.267Z,12.06
2022-10-01T11:35:42.282Z,12.13
2022-10-01T11:38:28.178Z,12.18
2022-10-01T11:41:04.445Z,12.32
2022-10-01T11:43:38.354Z,12.32
2022-10-01T11:46:14.493Z,12.42
2022-10-01T11:48:46.866Z,12.47
2022-10-01T11:51:20.377Z,12.39
2022-10-01T11:53:58.894Z,12.35
2022-10-01T11:56:49.319Z,12.22
2022-10-01T11:59:23.536Z,12.15
2022-10-01T12:02:03.233Z,12.21
2022-10-01T12:04:35.627Z,12.05
2022-10-01T12:07:13.188Z,12.17
2022-10-01T12:09:53.802Z,12.10
2022-10-01T12:12:25.051Z,12.13
2022-10-01T12:15:04.119Z,12.07
2022-10-01T12:17:43.010Z,12.05
2022-10-01T12:20:20.558Z,12.14
2022-10-01T12:22:49.510Z,12.17
2022-10-01T12:25:24.774Z,12.16
2022-10-01T12:27:59.864Z,12.20
2022-10-01T12:30:33.622Z,12.20
2022-10-01T12:33:21.392Z,12.26
2022-10-01T12:36:21.065Z,12.22
2022-10-01T12:39:05.185Z,12.24
2022-10-01T12:41:48.568Z,12.11
2022-10-01T12:44:36.674Z,12.11
2022-10-01T12:47:20.489Z,12.14
2022-10-01T12:50:02.316Z,12.13
2022-10-01T12:52:46.403Z,12.27
2022-10-01T12:55:29.392Z,12.46
2022-10-01T12:58:05.752Z,12.57
2022-10-01T13:00:41.642Z,12.83
2022-10-01T13:03:37.075Z,13.15
2022-10-01T13:06:22.053Z,13.55
2022-10-01T13:09:13.239Z,13.69
2022-10-01T13:12:03.665Z,14.02
2022-10-01T13:14:34.277Z,14.19
2022-10-01T13:17:06.803Z,14.26
2022-10-01T13:19:44.854Z,14.36
2022-10-01T13:22:26.377Z,14.27
2022-10-01T13:25:01.726Z,14.27
2022-10-01T13:27:38.773Z,14.16
2022-10-01T13:30:17.204Z,14.07
2022-10-01T13:32:53.393Z,13.95
2022-10-01T13:35:25.362Z,13.89
2022-10-01T13:37:55.548Z,13.88
2022-10-01T13:40:27.914Z,13.97
2022-10-01T13:43:01.211Z,14.11
2022-10-01T13:45:31.976Z,13.97
2022-10-01T13:48:17.567Z,14.14
2022-10-01T13:51:03.049Z,14.41
2022-10-01T13:53:36.979Z,14.31
2022-10-01T13:56:06.241Z,14.22
2022-10-01T13:58:41.587Z,14.22
2022-10-01T14:01:29.048Z,14.02
2022-10-01T14:04:05.255Z,13.97
2022-10-01T14:10:07.537Z,14.01
2022-10-01T14:12:55.906Z,13.93
2022-10-01T14:15:53.430Z,13.93
2022-10-01T14:18:24.860Z,13.85
2022-10-01T14:21:42.215Z,13.85
2022-10-01T14:24:21.962Z,13.93
2022-10-01T14:26:55.467Z,13.98
2022-10-01T14:29:38.156Z,13.98
2022-10-01T14:32:22.936Z,14.03
2022-10-01T14:35:11.770Z,14.02
2022-10-01T14:37:41.129Z,14.05
2022-10-01T14:40:18.685Z,14.15
2022-10-01T14:42:59.548Z,14.21
2022-10-01T14:45:32.559Z,14.14
2022-10-01T14:48:04.909Z,14.18
2022-10-01T14:50:35.082Z,14.12
2022-10-01T14:53:03.442Z,14.00
2022-10-01T14:55:32.429Z,13.95
2022-10-01T14:58:05.346Z,13.94
2022-10-01T15:00:34.749Z,13.92
2022-10-01T15:03:15.330Z,13.78
2022-10-01T15:05:44.208Z,13.82
2022-10-01T15:08:14.906Z,13.76
2022-10-01T15:10:47.589Z,13.76
2022-10-01T15:13:39.858Z,13.80
2022-10-01T15:16:13.585Z,13.90
2022-10-01T15:18:47.233Z,13.92
2022-10-01T15:21:19.989Z,13.95
2022-10-01T15:23:50.867Z,13.95
2022-10-01T15:26:27.540Z,13.92
2022-10-01T15:29:05.217Z,13.93
2022-10-01T15:31:34.340Z,13.97
2022-10-01T15:34:04.743Z,13.85
2022-10-01T15:36:35.688Z,13.71
2022-10-01T15:39:05.608Z,13.62
2022-10-01T15:42:02.318Z,13.47
2022-10-01T15:44:45.468Z,13.44
2022-10-01T15:47:34.991Z,13.42
2022-10-01T15:50:16.738Z,13.44
2022-10-01T15:52:53.624Z,13.44
2022-10-01T15:55:31.669Z,13.41
2022-10-01T15:58:17.096Z,13.38
2022-10-01T16:01:03.688Z,13.41
2022-10-01T16:03:33.984Z,13.31
2022-10-01T16:06:03.921Z,13.35
2022-10-01T16:08:35.398Z,13.24
2022-10-01T16:11:20.405Z,13.16
2022-10-01T16:13:50.621Z,13.03
2022-10-01T16:16:26.104Z,12.88
2022-10-01T16:18:59.152Z,12.77
2022-10-01T16:21:27.828Z,12.79
2022-10-01T16:23:57.860Z,12.79
2022-10-01T16:26:33.899Z,12.72
2022-10-01T16:29:04.448Z,12.75
2022-10-01T16:31:36.812Z,12.71
2022-10-01T16:34:12.103Z,12.68
2022-10-01T16:36:40.452Z,12.64
2022-10-01T16:39:08.804Z,12.60
2022-10-01T16:41:37.178Z,12.60
2022-10-01T16:44:06.074Z,12.58
2022-10-01T16:46:36.604Z,12.56
2022-10-01T16:49:12.359Z,12.57
2022-10-01T16:51:43.134Z,12.55
2022-10-01T16:54:22.822Z,12.53
2022-10-01T16:56:55.309Z,12.48
2022-10-01T16:59:25.288Z,12.47
2022-10-01T17:01:58.387Z,12.48
2022-10-01T17:04:29.280Z,12.48
2022-10-01T17:06:59.693Z,12.48
2022-10-01T17:09:32.608Z,12.51
2022-10-01T17:12:27.121Z,12.52
2022-10-01T17:14:55.588Z,12.52
2022-10-01T17:17:27.180Z,12.55
2022-10-01T17:19:57.406Z,12.50
2022-10-01T17:22:28.567Z,12.45
2022-10-01T17:24:56.589Z,12.39
2022-10-01T17:27:24.520Z,12.28
2022-10-01T17:29:53.583Z,12.23
2022-10-01T17:32:43.005Z,12.18
2022-10-01T17:35:20.442Z,12.17
2022-10-01T17:37:51.591Z,12.14
2022-10-01T17:40:20.019Z,12.08
2022-10-01T17:42:48.074Z,12.05
2022-10-01T17:45:57.821Z,12.05
2022-10-01T17:48:29.868Z,12.03
2022-10-01T17:51:02.656Z,12.01
2022-10-01T17:53:35.915Z,11.95
2022-10-01T17:56:09.160Z,11.94
2022-10-01T17:58:59.655Z,11.93
2022-10-01T18:01:27.898Z,11.91
2022-10-01T18:03:57.676Z,11.92
2022-10-01T18:06:26.622Z,11.93
2022-10-01T18:08:56.252Z,11.90
2022-10-01T18:11:25.636Z,11.87
2022-10-01T18:13:53.928Z,11.91
2022-10-01T18:16:23.596Z,11.95
2022-10-01T18:21:46.232Z,11.94
2022-10-01T18:24:18.238Z,12.00
2022-10-01T18:26:46.634Z,12.02
2022-10-01T18:29:19.311Z,12.07
2022-10-01T18:31:47.775Z,12.13
2022-10-01T18:34:23.836Z,12.15
2022-10-01T18:36:57.357Z,12.17
2022-10-01T18:39:29.001Z,12.00
2022-10-01T18:41:59.513Z,12.25
2022-10-01T18:44:43.077Z,12.32
2022-10-01T18:47:24.510Z,12.29
2022-10-01T18:50:12.091Z,12.32
2022-10-01T18:52:51.963Z,12.35
2022-10-01T18:55:37.137Z,12.38
2022-10-01T18:58:20.348Z,12.39
2022-10-01T19:00:58.848Z,12.41
2022-10-01T19:04:12.231Z,12.45
2022-10-01T19:06:49.866Z,12.44
2022-10-01T19:11:18.141Z,12.38
2022-10-01T19:13:53.965Z,12.36
2022-10-01T19:16:37.536Z,12.35
2022-10-01T19:19:23.067Z,12.36
2022-10-01T19:21:55.699Z,12.36
2022-10-01T19:25:06.391Z,12.38
2022-10-01T19:28:04.896Z,12.36
2022-10-01T19:30:44.177Z,12.35
2022-10-01T19:33:14.215Z,12.32
2022-10-01T19:35:47.173Z,12.33
2022-10-01T19:38:19.636Z,12.30
2022-10-01T19:40:53.271Z,12.27
2022-10-01T19:43:26.058Z,12.25
2022-10-01T19:46:00.110Z,12.26
2022-10-01T19:49:02.905Z,12.26
2022-10-01T19:51:36.265Z,12.28
2022-10-01T19:54:04.919Z,12.26
2022-10-01T19:56:38.087Z,12.24
2022-10-01T19:59:14.347Z,12.22
2022-10-01T20:01:48.031Z,12.23
2022-10-01T20:04:38.039Z,12.26
2022-10-01T20:07:11.383Z,12.28
2022-10-01T20:09:46.107Z,12.30
2022-10-01T20:12:28.745Z,12.31
2022-10-01T20:15:10.304Z,12.40
2022-10-01T20:17:51.094Z,12.45
2022-10-01T20:20:25.361Z,12.41
2022-10-01T20:23:09.830Z,12.41
2022-10-01T20:25:47.597Z,12.39
2022-10-01T20:28:25.777Z,12.38
2022-10-01T20:31:06.649Z,12.37
2022-10-01T20:33:44.206Z,12.36
2022-10-01T20:36:20.042Z,12.37
2022-10-01T20:39:03.286Z,12.43
2022-10-01T20:41:40.511Z,12.43
2022-10-01T20:44:15.766Z,12.42
2022-10-01T20:46:49.498Z,12.42
2022-10-01T20:49:27.200Z,12.38
2022-10-01T20:52:01.901Z,12.28
2022-10-01T20:54:35.109Z,12.34
2022-10-01T20:57:11.120Z,12.34
2022-10-01T20:59:43.220Z,12.31
2022-10-01T21:02:26.386Z,12.35
2022-10-01T21:05:02.571Z,12.36
2022-10-01T21:07:37.170Z,12.34
2022-10-01T21:10:16.370Z,12.35
2022-10-01T21:12:58.836Z,12.33
2022-10-01T21:15:34.797Z,12.26
2022-10-01T21:18:10.259Z,12.26
2022-10-01T21:20:47.150Z,12.21
2022-10-01T21:23:31.476Z,12.14
2022-10-01T21:26:13.086Z,12.14
2022-10-01T21:29:05.570Z,12.14
2022-10-01T21:31:45.428Z,12.14
2022-10-01T21:34:22.813Z,12.12
2022-10-01T21:37:00.542Z,12.13
2022-10-01T21:39:33.837Z,12.10
2022-10-01T21:42:15.197Z,12.06
2022-10-01T21:45:14.130Z,12.07
2022-10-01T21:48:03.404Z,12.05
2022-10-01T21:50:44.586Z,12.07
2022-10-01T21:53:44.169Z,12.10
2022-10-01T21:56:43.176Z,12.06
2022-10-01T21:59:30.010Z,12.14
2022-10-01T22:02:07.134Z,12.11
2022-10-01T22:04:41.753Z,12.10
2022-10-01T22:07:38.643Z,12.10
2022-10-01T22:10:16.182Z,12.10
2022-10-01T22:12:48.718Z,12.12
2022-10-01T22:15:23.305Z,12.17
2022-10-01T22:17:54.555Z,12.12
2022-10-01T22:20:30.538Z,12.06
2022-10-01T22:23:11.509Z,12.02
2022-10-01T22:25:48.194Z,12.03
2022-10-01T22:28:21.965Z,11.94
2022-10-01T22:30:52.599Z,12.05
2022-10-01T22:33:29.026Z,12.06
2022-10-01T22:36:03.387Z,12.14
2022-10-01T22:38:39.591Z,12.14
2022-10-01T22:41:17.117Z,12.15
2022-10-01T22:43:47.363Z,12.16
2022-10-01T22:46:38.105Z,12.18
2022-10-01T22:49:19.405Z,12.22
2022-10-01T22:52:01.784Z,12.25
2022-10-01T22:54:39.803Z,12.31
2022-10-01T22:57:26.427Z,12.34
2022-10-01T23:00:05.262Z,12.35
2022-10-01T23:02:39.512Z,12.37
2022-10-01T23:05:17.757Z,12.39
2022-10-01T23:07:58.865Z,12.48
2022-10-01T23:10:37.154Z,12.47
2022-10-01T23:13:20.341Z,12.49
2022-10-01T23:15:56.297Z,12.54
2022-10-01T23:18:37.573Z,12.58
2022-10-01T23:21:20.520Z,12.65
2022-10-01T23:23:56.570Z,12.66
2022-10-01T23:26:37.511Z,12.60
2022-10-01T23:29:24.127Z,12.61
2022-10-01T23:32:02.357Z,12.58
2022-10-01T23:34:36.938Z,12.60
2022-10-01T23:37:21.537Z,12.65
2022-10-01T23:39:58.578Z,12.65
2022-10-01T23:42:36.686Z,12.57
2022-10-01T23:45:18.541Z,12.53
2022-10-01T23:47:54.025Z,12.49
2022-10-01T23:50:47.153Z,12.43
2022-10-01T23:53:18.542Z,12.41
2022-10-01T23:56:10.047Z,12.34
2022-10-01T23:58:47.099Z,12.34
